EPH weather

Ephrata Municipal Airport
Ephrata, Washington, United States

Public forecast

Using degrees Fahrenheit for public forecast. Weather courtesy of forecast.io.

METAR (pilot weather report)

Retrieved 2019/05/20 16:53 UTC (1 hour ago):

KEPH 201653Z AUTO 07011KT 10SM CLR 17/M02 A2973 RMK AO2 SLP065 T01721022

TAF (pilot weather forecast)

Closest forecast is Grant County International Airport, 10.0 nm (18.5 km) SE. Retrieved 2019/05/20 12:48 UTC (5 hours ago):

TAF COR KMWH 201145Z 2012/2112 36009KT P6SM OVC090 FM202100 25009KT P6SM BKN080 BKN200 FM210500 35006KT P6SM VCSH SCT060 BKN090